Time;durP1;ratioP1;P1;durP2;ratioP2;P2;SDS_P1;SDS_P2;PMS_P1;PMS_P2;Temp;Humidity;BMP_temperature;BMP_pressure;BME280_temperature;BME280_humidity;BME280_pressure;Samples;Min_cycle;Max_cycle;Signal;HPM_P1;HPM_P2
2020/12/13 00:01:12;;;;;;;14.50;8.50;;;6.10;69.10;;;;;;5020678;28;20110;-83
2020/12/13 00:03:38;;;;;;;17.43;8.37;;;6.10;69.20;;;;;;5021661;28;20033;-83
2020/12/13 00:06:04;;;;;;;15.83;9.60;;;6.10;69.20;;;;;;5029013;28;20479;-84
2020/12/13 00:08:30;;;;;;;15.87;9.50;;;6.10;69.20;;;;;;5025633;28;20033;-85
2020/12/13 00:10:56;;;;;;;18.07;11.13;;;6.20;69.20;;;;;;5018750;28;20909;-85
2020/12/13 00:13:23;;;;;;;20.53;12.10;;;6.10;69.00;;;;;;5025749;28;20746;-85
2020/12/13 00:15:49;;;;;;;20.67;12.23;;;6.10;69.10;;;;;;5028594;28;20492;-85
2020/12/13 00:18:19;;;;;;;20.83;12.53;;;6.10;69.00;;;;;;5012807;28;20083;-85
2020/12/13 00:20:45;;;;;;;20.10;12.50;;;6.10;69.00;;;;;;5022769;28;20029;-85
2020/12/13 00:23:15;;;;;;;19.17;10.03;;;6.10;69.10;;;;;;5025031;28;20143;-85
2020/12/13 00:25:40;;;;;;;13.70;8.70;;;6.00;69.10;;;;;;5031577;28;20037;-84
2020/12/13 00:28:06;;;;;;;16.30;10.00;;;6.10;69.30;;;;;;5020259;28;20052;-83
2020/12/13 00:30:32;;;;;;;14.80;9.20;;;6.10;69.30;;;;;;5029602;28;20045;-83
2020/12/13 00:32:58;;;;;;;15.97;8.87;;;6.10;69.20;;;;;;5031873;28;20025;-84
2020/12/13 00:35:23;;;;;;;16.27;9.97;;;6.10;69.40;;;;;;5032152;28;20029;-83
2020/12/13 00:37:51;;;;;;;15.70;9.90;;;6.10;69.50;;;;;;5021536;28;20057;-83
2020/12/13 00:40:17;;;;;;;17.70;8.47;;;6.10;69.40;;;;;;5029771;28;20089;-83
2020/12/13 00:42:42;;;;;;;15.37;9.07;;;6.10;69.30;;;;;;5028067;28;20127;-83
2020/12/13 00:45:08;;;;;;;14.60;9.70;;;6.10;69.50;;;;;;5030253;28;20721;-84
2020/12/13 00:47:34;;;;;;;16.07;10.63;;;6.10;69.50;;;;;;5026342;28;20030;-84
2020/12/13 00:50:00;;;;;;;14.67;9.93;;;6.10;69.60;;;;;;5027925;28;20038;-84
2020/12/13 00:52:25;;;;;;;12.80;8.17;;;6.10;69.60;;;;;;5021778;28;20021;-84
2020/12/13 00:54:51;;;;;;;12.83;8.40;;;6.10;69.50;;;;;;5027331;28;20029;-84
2020/12/13 00:57:17;;;;;;;14.07;9.03;;;6.10;69.70;;;;;;5026055;28;20021;-84
2020/12/13 00:59:42;;;;;;;16.00;10.27;;;6.10;69.70;;;;;;5023960;28;20032;-83
2020/12/13 01:02:08;;;;;;;15.07;9.23;;;6.10;69.90;;;;;;5031071;28;20104;-83
2020/12/13 01:04:34;;;;;;;11.43;7.90;;;6.10;69.80;;;;;;5027379;28;20387;-83
2020/12/13 01:07:04;;;;;;;14.60;8.37;;;6.10;70.00;;;;;;5030781;28;20038;-83
2020/12/13 01:09:30;;;;;;;15.03;8.83;;;6.20;70.10;;;;;;5029660;28;20030;-83
2020/12/13 01:11:55;;;;;;;14.63;8.53;;;6.10;70.10;;;;;;5026436;28;20044;-83
2020/12/13 01:14:21;;;;;;;15.80;10.33;;;6.10;69.90;;;;;;5016712;28;22160;-83
2020/12/13 01:16:47;;;;;;;14.07;9.10;;;6.10;69.50;;;;;;5028707;28;20030;-84
2020/12/13 01:19:12;;;;;;;14.47;9.43;;;6.00;69.70;;;;;;5029226;28;20025;-83
2020/12/13 01:21:38;;;;;;;18.47;10.03;;;6.00;69.70;;;;;;5045361;28;20029;-84
2020/12/13 01:24:04;;;;;;;17.00;9.43;;;6.10;69.50;;;;;;5024454;28;20422;-83
2020/12/13 01:26:30;;;;;;;15.07;9.43;;;6.10;69.40;;;;;;5023332;28;20499;-84
2020/12/13 01:28:55;;;;;;;16.33;9.20;;;6.10;69.20;;;;;;5028520;28;20103;-84
2020/12/13 01:31:23;;;;;;;15.20;9.37;;;6.10;69.30;;;;;;5023530;28;20041;-84
2020/12/13 01:33:50;;;;;;;18.03;9.80;;;6.10;68.90;;;;;;5027841;28;20480;-84
2020/12/13 01:36:18;;;;;;;13.33;8.93;;;6.10;68.90;;;;;;5019389;28;20026;-84
2020/12/13 01:38:44;;;;;;;11.50;7.50;;;6.00;68.50;;;;;;5015516;28;20161;-84
2020/12/13 01:41:10;;;;;;;14.53;9.60;;;5.90;69.20;;;;;;5023102;28;20030;-84
2020/12/13 01:43:36;;;;;;;15.73;10.17;;;6.00;69.00;;;;;;5027480;28;20068;-84
2020/12/13 01:46:03;;;;;;;17.80;11.03;;;5.90;68.60;;;;;;5030904;28;20037;-83
2020/12/13 01:48:29;;;;;;;15.87;8.77;;;5.80;69.00;;;;;;5025227;28;20029;-84
2020/12/13 01:51:18;;;;;;;20.00;9.07;;;5.90;69.50;;;;;;5028804;28;20026;-84
2020/12/13 01:53:45;;;;;;;17.97;9.27;;;6.00;69.00;;;;;;5019948;28;20029;-82
2020/12/13 01:56:12;;;;;;;17.10;9.87;;;5.90;68.60;;;;;;5027998;28;20025;-83
2020/12/13 01:58:38;;;;;;;16.67;9.20;;;5.80;68.80;;;;;;5020437;28;20022;-84
2020/12/13 02:01:08;;;;;;;17.57;9.50;;;5.80;68.90;;;;;;5022798;28;20476;-83
2020/12/13 02:03:51;;;;;;;16.03;9.77;;;5.80;68.80;;;;;;5020844;28;20036;-83
2020/12/13 02:06:22;;;;;;;18.60;9.00;;;5.80;69.10;;;;;;5026368;28;20531;-83
2020/12/13 02:08:49;;;;;;;13.33;8.77;;;6.00;69.10;;;;;;5018716;28;20084;-83
2020/12/13 02:11:15;;;;;;;14.57;9.03;;;6.00;68.80;;;;;;5023647;28;20420;-84
2020/12/13 02:13:41;;;;;;;14.03;9.20;;;6.30;69.20;;;;;;5018946;28;20022;-84
2020/12/13 02:16:08;;;;;;;16.67;9.70;;;6.30;68.50;;;;;;5024841;28;20595;-84
2020/12/13 02:18:35;;;;;;;14.17;8.63;;;6.30;68.30;;;;;;5016031;28;20057;-84
2020/12/13 02:21:03;;;;;;;15.77;9.63;;;6.20;68.00;;;;;;5029968;28;20342;-85
2020/12/13 02:23:30;;;;;;;18.27;8.90;;;6.20;68.30;;;;;;5017839;28;20033;-84
2020/12/13 02:25:56;;;;;;;17.47;9.37;;;6.20;68.30;;;;;;5028105;28;20100;-84
2020/12/13 02:28:22;;;;;;;11.73;7.77;;;6.10;68.30;;;;;;5017643;28;20045;-84
2020/12/13 02:30:48;;;;;;;15.17;9.30;;;6.10;68.60;;;;;;5029141;28;20025;-84
2020/12/13 02:33:13;;;;;;;13.20;9.03;;;6.20;68.50;;;;;;5021475;28;20096;-84
2020/12/13 02:35:39;;;;;;;13.90;8.80;;;6.00;68.50;;;;;;5022986;28;20074;-84
2020/12/13 02:38:05;;;;;;;15.60;8.47;;;6.00;69.00;;;;;;5017235;28;20069;-84
2020/12/13 02:40:31;;;;;;;13.97;9.07;;;6.00;69.00;;;;;;5019567;28;20022;-84
2020/12/13 02:42:56;;;;;;;14.63;9.77;;;6.00;68.90;;;;;;5024928;28;20378;-84
2020/12/13 02:45:22;;;;;;;15.23;8.83;;;6.00;68.60;;;;;;5018305;28;20053;-84
2020/12/13 02:47:48;;;;;;;14.77;9.90;;;6.00;68.90;;;;;;5016518;28;20063;-84
2020/12/13 02:50:13;;;;;;;15.07;9.17;;;5.90;68.70;;;;;;5021538;28;20026;-84
2020/12/13 02:52:39;;;;;;;12.53;8.50;;;5.90;68.80;;;;;;5014743;28;20025;-84
2020/12/13 02:55:05;;;;;;;13.03;9.23;;;5.90;69.10;;;;;;5030054;28;20076;-84
2020/12/13 02:57:31;;;;;;;14.33;9.03;;;6.00;69.10;;;;;;5016330;28;20025;-84
2020/12/13 02:59:56;;;;;;;13.30;9.03;;;5.90;69.40;;;;;;5029461;28;20057;-84
2020/12/13 03:02:22;;;;;;;12.57;8.50;;;5.90;69.10;;;;;;5020619;28;20029;-84
2020/12/13 03:04:48;;;;;;;13.50;8.37;;;6.00;69.10;;;;;;5021054;28;20515;-84
2020/12/13 03:07:13;;;;;;;12.10;7.97;;;6.00;69.10;;;;;;5026383;28;20040;-85
2020/12/13 03:09:39;;;;;;;12.77;8.90;;;6.00;69.20;;;;;;5030270;28;20106;-84
2020/12/13 03:12:05;;;;;;;14.00;9.73;;;6.00;69.00;;;;;;5030763;28;20036;-84
2020/12/13 03:14:31;;;;;;;16.10;8.80;;;5.90;68.90;;;;;;5026047;28;20044;-84
2020/12/13 03:16:57;;;;;;;13.80;8.30;;;5.90;69.40;;;;;;5021726;28;20116;-84
2020/12/13 03:19:23;;;;;;;13.73;9.17;;;5.90;69.30;;;;;;5018799;28;20117;-84
2020/12/13 03:21:48;;;;;;;13.97;8.70;;;6.00;69.60;;;;;;5021360;28;20029;-84
2020/12/13 03:24:15;;;;;;;11.77;8.53;;;6.00;69.10;;;;;;5023365;28;20032;-84
2020/12/13 03:26:42;;;;;;;13.10;8.57;;;6.00;68.90;;;;;;5030840;28;20488;-84
2020/12/13 03:29:08;;;;;;;15.67;9.77;;;6.00;69.00;;;;;;5020820;28;20033;-84
2020/12/13 03:31:34;;;;;;;13.37;8.77;;;6.10;68.90;;;;;;5021606;28;20061;-84
2020/12/13 03:33:59;;;;;;;13.63;8.37;;;6.10;68.90;;;;;;5019669;28;20041;-84
2020/12/13 03:36:25;;;;;;;12.37;8.43;;;6.10;69.00;;;;;;5017174;28;20036;-84
2020/12/13 03:38:51;;;;;;;12.00;7.83;;;6.10;69.10;;;;;;5018770;28;20244;-84
2020/12/13 03:41:17;;;;;;;15.07;9.33;;;6.10;69.20;;;;;;5012210;28;20056;-84
2020/12/13 03:43:42;;;;;;;13.50;8.33;;;6.10;69.30;;;;;;5022884;28;20037;-84
2020/12/13 03:46:08;;;;;;;15.93;9.23;;;6.10;69.50;;;;;;5027794;28;20045;-84
2020/12/13 03:48:34;;;;;;;16.10;9.63;;;6.00;69.30;;;;;;5014026;28;20085;-84
2020/12/13 03:50:59;;;;;;;14.33;9.53;;;6.00;69.40;;;;;;5023493;28;20036;-84
2020/12/13 03:53:25;;;;;;;13.07;8.43;;;6.00;69.20;;;;;;5023130;28;20084;-84
2020/12/13 03:55:51;;;;;;;14.73;9.50;;;6.00;69.60;;;;;;5021839;28;20034;-84
2020/12/13 03:58:16;;;;;;;14.40;8.90;;;6.00;69.70;;;;;;5023590;28;20132;-83
2020/12/13 04:00:42;;;;;;;13.63;8.70;;;5.90;69.70;;;;;;5018372;28;20037;-83
2020/12/13 04:03:08;;;;;;;16.07;9.53;;;5.90;70.00;;;;;;5021459;28;20059;-84
2020/12/13 04:05:34;;;;;;;13.13;9.00;;;6.00;70.10;;;;;;5029974;28;20729;-84
2020/12/13 04:08:00;;;;;;;12.27;8.97;;;6.00;70.20;;;;;;5026417;28;20036;-84
2020/12/13 04:10:26;;;;;;;11.53;7.60;;;6.00;70.30;;;;;;5023308;28;20021;-84
2020/12/13 04:12:52;;;;;;;13.37;9.10;;;6.10;70.90;;;;;;5026804;28;20034;-83
2020/12/13 04:15:18;;;;;;;12.27;8.67;;;6.10;70.10;;;;;;5022571;28;20026;-84
2020/12/13 04:17:47;;;;;;;10.73;7.20;;;6.10;70.20;;;;;;5027874;28;20346;-84
2020/12/13 04:20:13;;;;;;;14.67;9.03;;;6.00;70.30;;;;;;5030732;28;20129;-83
2020/12/13 04:22:39;;;;;;;14.50;8.40;;;6.10;70.40;;;;;;5025049;28;20032;-84
2020/12/13 04:25:06;;;;;;;14.43;8.57;;;6.00;70.30;;;;;;5026215;28;20060;-84
2020/12/13 04:27:32;;;;;;;14.60;9.63;;;6.00;70.40;;;;;;5020515;28;20041;-84
2020/12/13 04:29:58;;;;;;;13.77;9.17;;;5.90;70.30;;;;;;5019816;28;20457;-84
2020/12/13 04:32:24;;;;;;;13.33;9.90;;;5.90;70.90;;;;;;5025245;28;20022;-85
2020/12/13 04:34:50;;;;;;;14.87;9.47;;;5.80;71.00;;;;;;5028971;28;20034;-85
2020/12/13 04:37:17;;;;;;;14.43;10.20;;;5.80;71.10;;;;;;5019005;28;20388;-85
2020/12/13 04:39:42;;;;;;;14.93;9.63;;;5.90;71.40;;;;;;5024078;28;20119;-85
2020/12/13 04:42:09;;;;;;;14.93;10.43;;;5.90;71.30;;;;;;5026341;28;20500;-85
2020/12/13 04:44:36;;;;;;;14.93;9.73;;;5.90;71.30;;;;;;5027680;28;20053;-85
2020/12/13 04:47:04;;;;;;;15.63;10.03;;;5.90;71.30;;;;;;5028554;28;20038;-85
2020/12/13 04:49:35;;;;;;;14.10;10.00;;;5.80;71.50;;;;;;5021318;28;20444;-85
2020/12/13 04:52:03;;;;;;;13.67;9.30;;;5.80;71.70;;;;;;5018620;28;20062;-85
2020/12/13 04:54:30;;;;;;;15.43;9.50;;;5.80;71.80;;;;;;5028803;28;20025;-85
2020/12/13 04:56:58;;;;;;;12.47;9.70;;;5.80;71.70;;;;;;5028831;28;20053;-85
2020/12/13 04:59:25;;;;;;;15.93;9.90;;;5.90;71.90;;;;;;5038254;28;20033;-85
2020/12/13 05:01:53;;;;;;;16.77;8.60;;;5.90;71.90;;;;;;5022887;28;20022;-85
2020/12/13 05:04:18;;;;;;;15.87;9.57;;;5.90;71.90;;;;;;5011283;28;20481;-85
2020/12/13 05:06:45;;;;;;;15.40;10.23;;;5.90;71.80;;;;;;5018909;28;20032;-85
2020/12/13 05:09:13;;;;;;;15.20;10.13;;;6.00;72.00;;;;;;5020028;28;20055;-85
2020/12/13 05:11:44;;;;;;;14.43;10.43;;;6.00;71.90;;;;;;5018123;28;20034;-85
2020/12/13 05:14:10;;;;;;;12.90;9.00;;;6.00;71.80;;;;;;5022749;28;20029;-84
2020/12/13 05:16:36;;;;;;;13.33;9.27;;;5.80;71.90;;;;;;5021477;28;20033;-85
2020/12/13 05:19:05;;;;;;;11.83;8.83;;;5.90;72.30;;;;;;5019722;28;20439;-85
2020/12/13 05:21:30;;;;;;;13.07;9.27;;;5.90;72.30;;;;;;5032189;28;20030;-85
2020/12/13 05:23:56;;;;;;;15.40;9.90;;;5.90;72.20;;;;;;5019476;28;20045;-85
2020/12/13 05:26:23;;;;;;;13.47;9.30;;;5.90;72.30;;;;;;5012912;28;20060;-85
2020/12/13 05:28:53;;;;;;;14.67;10.37;;;6.00;72.40;;;;;;5027370;28;20025;-84
2020/12/13 05:31:25;;;;;;;14.00;9.87;;;6.00;72.30;;;;;;5019342;28;20042;-84
2020/12/13 05:33:55;;;;;;;11.05;8.60;;;6.00;72.30;;;;;;5043501;28;20484;-85
2020/12/13 05:36:21;;;;;;;16.03;10.03;;;5.90;72.00;;;;;;5012822;28;20044;-85
2020/12/13 05:38:47;;;;;;;14.43;10.07;;;5.80;72.50;;;;;;5025135;28;20026;-84
2020/12/13 05:41:15;;;;;;;16.37;10.43;;;5.90;72.60;;;;;;5026030;28;20071;-85
2020/12/13 05:43:49;;;;;;;16.30;12.03;;;5.80;72.50;;;;;;5028912;28;20057;-85
2020/12/13 05:51:40;;;;;;;14.10;10.00;;;5.80;72.80;;;;;;5032273;28;20025;-85
2020/12/13 05:54:31;;;;;;;14.23;10.30;;;5.90;72.70;;;;;;5025687;28;20030;-85
2020/12/13 05:57:00;;;;;;;18.13;11.53;;;5.80;72.50;;;;;;5016081;28;20081;-85
2020/12/13 05:59:30;;;;;;;14.23;10.63;;;5.80;72.70;;;;;;5029026;28;20116;-85
2020/12/13 06:01:57;;;;;;;16.17;11.27;;;5.80;72.70;;;;;;5028230;28;20117;-85
2020/12/13 06:04:28;;;;;;;16.80;11.67;;;5.70;72.80;;;;;;5030380;28;20419;-85
2020/12/13 06:06:59;;;;;;;15.17;11.37;;;5.70;73.50;;;;;;5029967;28;20491;-85
2020/12/13 06:09:35;;;;;;;16.33;11.47;;;5.70;73.00;;;;;;5015287;28;20029;-85
2020/12/13 06:12:06;;;;;;;16.03;10.97;;;5.70;73.10;;;;;;5022269;28;20088;-85
2020/12/13 06:14:33;;;;;;;17.23;10.73;;;5.70;73.00;;;;;;5022356;28;20033;-85
2020/12/13 06:17:01;;;;;;;17.37;11.40;;;5.70;73.00;;;;;;5021689;28;20037;-85
2020/12/13 06:19:30;;;;;;;14.13;11.30;;;5.70;73.20;;;;;;5016469;28;20018;-84
2020/12/13 06:21:57;;;;;;;13.70;10.33;;;5.70;73.30;;;;;;5030334;28;20030;-85
2020/12/13 06:24:23;;;;;;;14.90;10.37;;;5.80;73.30;;;;;;5030924;28;20026;-84
2020/12/13 06:26:51;;;;;;;15.13;10.20;;;5.80;73.30;;;;;;5030614;28;20111;-85
2020/12/13 06:29:22;;;;;;;15.73;10.80;;;5.80;73.20;;;;;;5031602;28;22130;-85
2020/12/13 06:31:49;;;;;;;16.07;11.03;;;5.70;73.20;;;;;;5030183;28;20076;-83
2020/12/13 06:34:15;;;;;;;15.97;10.93;;;5.70;73.40;;;;;;5024503;28;20033;-83
2020/12/13 06:36:41;;;;;;;14.60;11.40;;;5.70;73.30;;;;;;5030697;28;20400;-82
2020/12/13 06:39:14;;;;;;;15.97;11.17;;;5.70;73.40;;;;;;5028029;28;20025;-82
2020/12/13 06:41:48;;;;;;;17.37;11.97;;;5.70;73.60;;;;;;5026514;28;20540;-83
2020/12/13 06:44:15;;;;;;;17.10;12.00;;;5.70;73.50;;;;;;5021711;28;20030;-83
2020/12/13 06:46:43;;;;;;;15.80;11.53;;;5.80;73.50;;;;;;5030813;28;20092;-82
2020/12/13 06:49:14;;;;;;;14.23;10.17;;;5.70;73.50;;;;;;5028935;28;20032;-83
2020/12/13 06:51:41;;;;;;;15.73;11.57;;;5.70;73.70;;;;;;5031647;28;20017;-83
2020/12/13 06:54:10;;;;;;;15.33;11.73;;;5.70;73.90;;;;;;5022704;28;20030;-83
2020/12/13 06:56:36;;;;;;;16.90;11.93;;;5.70;73.60;;;;;;5029007;28;20048;-83
2020/12/13 06:59:04;;;;;;;22.73;12.37;;;5.70;73.90;;;;;;5016807;28;20107;-83
2020/12/13 07:01:37;;;;;;;15.53;11.53;;;5.70;73.60;;;;;;5030043;28;20025;-83
2020/12/13 07:04:21;;;;;;;18.30;12.13;;;5.70;73.80;;;;;;5029298;28;20033;-83
2020/12/13 07:07:15;;;;;;;17.53;11.67;;;5.80;73.80;;;;;;5026237;28;20030;-83
2020/12/13 07:09:38;;;;;;;17.27;12.43;;;5.80;73.70;;;;;;5019503;28;20104;-83
2020/12/13 07:12:04;;;;;;;16.77;12.67;;;5.90;73.50;;;;;;5027749;28;20107;-83
2020/12/13 07:14:33;;;;;;;15.03;12.30;;;5.90;73.40;;;;;;5013217;28;20030;-83
2020/12/13 07:17:11;;;;;;;16.60;12.53;;;5.90;73.50;;;;;;5030319;28;20029;-83
2020/12/13 07:19:38;;;;;;;17.80;12.47;;;5.90;73.60;;;;;;5023536;28;20014;-83
2020/12/13 07:22:10;;;;;;;16.83;11.53;;;5.80;73.60;;;;;;5013015;28;20038;-83
2020/12/13 07:24:36;;;;;;;;;;;5.80;73.90;;;;;;5026831;28;20034;-82
2020/12/13 07:27:04;;;;;;;17.30;11.70;;;5.70;73.70;;;;;;5015497;28;19909;-83
2020/12/13 07:29:32;;;;;;;18.43;12.73;;;5.70;73.90;;;;;;5023402;28;20860;-83
2020/12/13 07:31:58;;;;;;;47.80;17.50;;;5.70;73.90;;;;;;5020496;28;20033;-83
2020/12/13 07:34:24;;;;;;;18.23;13.13;;;5.70;73.90;;;;;;5017115;28;20033;-83
2020/12/13 07:36:50;;;;;;;17.50;12.40;;;5.70;74.10;;;;;;5020093;28;20080;-83
2020/12/13 07:39:16;;;;;;;19.80;11.97;;;5.80;74.10;;;;;;5020989;28;20424;-82
2020/12/13 07:41:42;;;;;;;25.37;19.83;;;5.80;74.00;;;;;;5030015;28;20048;-83
2020/12/13 07:44:11;;;;;;;23.77;18.17;;;5.80;74.00;;;;;;5023619;28;20687;-83
2020/12/13 07:46:37;;;;;;;33.40;25.73;;;5.80;73.90;;;;;;5014934;28;20034;-83
2020/12/13 07:49:06;;;;;;;31.13;25.37;;;5.90;74.00;;;;;;5026277;28;20049;-83
2020/12/13 07:51:33;;;;;;;23.33;18.57;;;5.90;74.10;;;;;;5032797;28;20033;-83
2020/12/13 07:54:32;;;;;;;17.97;14.70;;;5.90;73.90;;;;;;5020650;28;20480;-83
2020/12/13 07:57:13;;;;;;;20.87;14.07;;;5.80;73.80;;;;;;5015865;28;20604;-83
2020/12/13 07:59:39;;;;;;;19.73;14.63;;;5.80;74.00;;;;;;5029001;28;20112;-83
2020/12/13 08:02:07;;;;;;;20.47;13.03;;;5.90;74.00;;;;;;5017122;28;20112;-82
2020/12/13 08:04:41;;;;;;;15.83;12.10;;;5.90;73.90;;;;;;5029190;28;20033;-83
2020/12/13 08:07:11;;;;;;;15.00;11.30;;;5.90;74.00;;;;;;5016462;28;20064;-83
2020/12/13 08:09:43;;;;;;;16.03;12.00;;;5.90;74.00;;;;;;5026666;28;20044;-83
2020/12/13 08:12:10;;;;;;;14.55;11.73;;;5.90;73.80;;;;;;5023363;28;20167;-83
2020/12/13 08:14:36;;;;;;;15.43;11.50;;;5.90;73.70;;;;;;5029526;28;20040;-83
2020/12/13 08:17:02;;;;;;;30.90;18.93;;;6.00;74.00;;;;;;5027211;28;20029;-84
2020/12/13 08:19:41;;;;;;;28.37;18.47;;;6.00;73.90;;;;;;5021592;28;20030;-84
2020/12/13 08:22:14;;;;;;;25.63;17.33;;;6.00;73.80;;;;;;5018190;28;20113;-83
2020/12/13 08:24:41;;;;;;;26.80;17.57;;;6.00;73.80;;;;;;5011511;28;20026;-83
2020/12/13 08:27:09;;;;;;;25.83;16.33;;;6.00;73.70;;;;;;5025710;28;20558;-83
2020/12/13 08:29:35;;;;;;;32.63;20.40;;;6.00;73.90;;;;;;5026319;28;20087;-83
2020/12/13 08:32:11;;;;;;;38.33;24.63;;;6.00;74.00;;;;;;5015976;28;20034;-83
2020/12/13 08:34:37;;;;;;;33.27;20.57;;;6.10;74.10;;;;;;5029446;28;20025;-83
2020/12/13 08:37:03;;;;;;;24.87;16.73;;;6.10;74.10;;;;;;5010781;28;20032;-83
2020/12/13 08:39:29;;;;;;;22.93;16.80;;;6.00;74.00;;;;;;5020118;28;20025;-84
2020/12/13 08:41:56;;;;;;;14.07;11.23;;;6.10;74.20;;;;;;5030721;28;20116;-83
2020/12/13 08:44:44;;;;;;;17.37;11.37;;;6.10;74.00;;;;;;5033362;28;20034;-84
2020/12/13 08:47:11;;;;;;;15.63;11.57;;;6.10;73.80;;;;;;5022110;28;20049;-83
2020/12/13 08:49:39;;;;;;;20.10;14.83;;;6.10;73.90;;;;;;5016896;28;20037;-84
2020/12/13 08:52:22;;;;;;;22.03;15.37;;;6.20;74.20;;;;;;5021074;28;20034;-84
2020/12/13 08:54:56;;;;;;;25.08;16.80;;;6.20;74.10;;;;;;5027390;28;20026;-84
2020/12/13 08:57:32;;;;;;;26.57;17.97;;;6.20;74.20;;;;;;5026141;28;20053;-83
2020/12/13 09:00:17;;;;;;;20.33;14.53;;;6.20;74.00;;;;;;5017985;28;20033;-84
2020/12/13 09:03:03;;;;;;;19.07;14.17;;;6.20;73.90;;;;;;5022471;28;20058;-84
2020/12/13 09:05:30;;;;;;;20.73;15.47;;;6.20;74.10;;;;;;5028434;28;20025;-84
2020/12/13 09:07:58;;;;;;;19.70;13.40;;;6.30;74.00;;;;;;5032720;28;20029;-84
2020/12/13 09:10:25;;;;;;;16.63;12.63;;;6.30;74.00;;;;;;5030086;28;20026;-84
2020/12/13 09:12:51;;;;;;;16.93;12.53;;;6.40;74.00;;;;;;5023504;28;20037;-84
2020/12/13 09:15:21;;;;;;;14.93;10.50;;;6.40;73.80;;;;;;5015550;28;20051;-84
2020/12/13 09:18:02;;;;;;;16.47;10.67;;;6.40;73.80;;;;;;5020663;28;20484;-84
2020/12/13 09:20:30;;;;;;;14.90;10.83;;;6.30;74.00;;;;;;5028923;28;20018;-84
2020/12/13 09:23:06;;;;;;;14.93;11.53;;;6.30;74.00;;;;;;5017975;28;20025;-84
2020/12/13 09:25:43;;;;;;;16.23;10.97;;;6.20;74.00;;;;;;5028045;28;20053;-84
2020/12/13 09:28:11;;;;;;;15.40;11.30;;;6.20;73.90;;;;;;5021593;28;20053;-84
2020/12/13 09:30:37;;;;;;;13.43;11.10;;;6.10;74.10;;;;;;5018480;28;20036;-84
2020/12/13 09:33:04;;;;;;;15.60;11.00;;;6.10;74.60;;;;;;5027650;28;20463;-84
2020/12/13 09:35:33;;;;;;;15.33;12.50;;;6.20;74.70;;;;;;5020519;28;20453;-84
2020/12/13 09:38:00;;;;;;;19.77;13.00;;;6.20;74.40;;;;;;5017088;28;20098;-84
2020/12/13 09:40:27;;;;;;;17.90;12.87;;;6.20;74.40;;;;;;5032285;28;20033;-84
2020/12/13 09:42:56;;;;;;;20.73;14.53;;;6.20;74.40;;;;;;5037156;28;20127;-84
2020/12/13 09:45:23;;;;;;;19.60;14.17;;;6.20;74.40;;;;;;5031341;28;20025;-84
2020/12/13 09:47:58;;;;;;;18.23;14.77;;;6.30;74.60;;;;;;5028374;28;20053;-84
2020/12/13 09:50:28;;;;;;;19.00;13.53;;;6.30;74.50;;;;;;5013080;28;20026;-84
2020/12/13 09:52:54;;;;;;;16.73;13.93;;;6.30;74.90;;;;;;5016466;28;20032;-84
2020/12/13 09:55:20;;;;;;;16.87;12.57;;;6.30;74.90;;;;;;5022992;28;20041;-83
2020/12/13 09:57:46;;;;;;;15.03;12.53;;;6.30;74.90;;;;;;5032476;28;20017;-84
2020/12/13 10:00:12;;;;;;;16.80;12.37;;;6.30;74.70;;;;;;5031542;28;20116;-84
2020/12/13 10:02:38;;;;;;;22.00;13.70;;;6.30;74.70;;;;;;5050649;28;20025;-84
2020/12/13 10:05:07;;;;;;;16.70;11.80;;;6.30;74.80;;;;;;5036326;28;20029;-84
2020/12/13 10:10:14;;;;;;;14.67;12.47;;;6.40;74.80;;;;;;5033306;28;20033;-84
2020/12/13 10:12:40;;;;;;;18.63;14.40;;;6.50;74.90;;;;;;5026999;28;20025;-84
2020/12/13 10:15:05;;;;;;;14.97;12.50;;;6.50;74.80;;;;;;5031137;28;20499;-84
2020/12/13 10:17:34;;;;;;;19.10;13.43;;;6.60;75.00;;;;;;5042306;28;20060;-83
2020/12/13 10:20:00;;;;;;;16.67;12.73;;;6.60;74.70;;;;;;5032446;28;20040;-85
2020/12/13 10:22:25;;;;;;;16.57;12.57;;;6.60;74.70;;;;;;5031147;28;20025;-84
2020/12/13 10:24:51;;;;;;;14.60;10.20;;;6.70;74.80;;;;;;5027188;28;20128;-83
2020/12/13 10:27:17;;;;;;;14.90;11.93;;;6.70;74.90;;;;;;5030956;28;20021;-85
2020/12/13 10:29:42;;;;;;;16.67;13.67;;;6.70;74.50;;;;;;5031158;28;20021;-84
2020/12/13 10:32:08;;;;;;;17.13;12.77;;;6.70;74.60;;;;;;5028131;28;20056;-84
2020/12/13 10:34:34;;;;;;;12.20;9.47;;;6.80;74.70;;;;;;5030589;28;20040;-84
2020/12/13 10:36:59;;;;;;;14.57;11.27;;;6.80;74.60;;;;;;5029675;28;20083;-84
2020/12/13 10:39:25;;;;;;;14.80;11.77;;;6.80;74.50;;;;;;5031051;28;20068;-84
2020/12/13 10:41:52;;;;;;;15.63;12.20;;;6.90;74.50;;;;;;5029949;28;20053;-84
2020/12/13 10:44:19;;;;;;;14.87;11.97;;;6.90;74.30;;;;;;5012004;28;20396;-84
2020/12/13 10:46:48;;;;;;;16.23;11.87;;;6.90;74.60;;;;;;5028947;28;20036;-84
2020/12/13 10:49:14;;;;;;;15.83;13.57;;;6.90;74.50;;;;;;5030754;28;20036;-84
2020/12/13 10:51:40;;;;;;;18.43;13.57;;;6.90;74.50;;;;;;5030672;28;20111;-84
2020/12/13 10:54:06;;;;;;;17.70;14.10;;;7.00;74.70;;;;;;5012033;28;20030;-84
2020/12/13 10:56:32;;;;;;;18.20;13.33;;;7.00;74.40;;;;;;5024568;28;20029;-83
2020/12/13 10:58:57;;;;;;;14.67;12.17;;;7.00;74.50;;;;;;5019644;28;20033;-84
2020/12/13 11:01:23;;;;;;;17.23;12.03;;;7.00;74.50;;;;;;5029939;28;20026;-85
2020/12/13 11:03:49;;;;;;;19.87;13.40;;;7.10;74.50;;;;;;5027548;28;20485;-85
2020/12/13 11:06:14;;;;;;;16.40;10.97;;;7.10;74.60;;;;;;5012855;28;20104;-84
2020/12/13 11:08:40;;;;;;;17.60;11.73;;;7.10;74.50;;;;;;5014631;28;20361;-85
2020/12/13 11:11:06;;;;;;;15.53;11.33;;;7.00;74.40;;;;;;5030901;28;20087;-85
2020/12/13 11:13:33;;;;;;;18.27;11.10;;;7.00;74.70;;;;;;5028658;28;20030;-85
2020/12/13 11:15:59;;;;;;;16.40;12.43;;;7.10;74.80;;;;;;5028801;28;20472;-85
2020/12/13 11:18:30;;;;;;;21.53;15.37;;;7.10;74.70;;;;;;5030335;28;20022;-85
2020/12/13 11:20:56;;;;;;;14.97;12.17;;;7.10;74.70;;;;;;5022239;28;20025;-84
2020/12/13 11:23:21;;;;;;;16.63;11.93;;;7.10;74.80;;;;;;5029548;28;20033;-84
2020/12/13 11:25:47;;;;;;;16.73;11.87;;;7.10;74.80;;;;;;5030853;28;20507;-85
2020/12/13 11:28:13;;;;;;;17.97;13.30;;;7.10;74.90;;;;;;5022102;28;20375;-85
2020/12/13 11:30:38;;;;;;;19.67;14.53;;;7.10;74.90;;;;;;5016445;28;20080;-84
2020/12/13 11:33:04;;;;;;;11.80;8.63;;;7.10;74.90;;;;;;5019398;28;20026;-84
2020/12/13 11:35:30;;;;;;;10.17;7.80;;;7.20;74.90;;;;;;5019378;28;20017;-84
2020/12/13 11:37:55;;;;;;;10.87;8.40;;;7.10;74.70;;;;;;5022314;28;20068;-84
2020/12/13 11:40:21;;;;;;;18.13;9.40;;;7.20;74.70;;;;;;5021610;28;20049;-84
2020/12/13 11:42:47;;;;;;;17.33;11.60;;;7.20;74.60;;;;;;5029751;28;20049;-84
2020/12/13 11:45:13;;;;;;;15.50;10.37;;;7.30;74.60;;;;;;5027910;28;20036;-84
2020/12/13 11:47:39;;;;;;;15.63;11.40;;;7.30;74.60;;;;;;5021363;28;20040;-84
2020/12/13 11:50:05;;;;;;;17.90;13.80;;;7.30;74.60;;;;;;5030716;28;20400;-84
2020/12/13 11:52:31;;;;;;;15.00;11.60;;;7.30;74.80;;;;;;5022147;28;20497;-84
2020/12/13 11:54:57;;;;;;;13.47;10.93;;;7.40;74.70;;;;;;5029569;28;20060;-84
2020/12/13 11:57:23;;;;;;;14.67;10.67;;;7.40;74.80;;;;;;5014192;28;20030;-84
2020/12/13 11:59:48;;;;;;;15.70;10.33;;;7.50;74.80;;;;;;5012650;28;20029;-84
2020/12/13 12:02:14;;;;;;;14.80;11.10;;;7.50;74.80;;;;;;5023962;28;20055;-84
2020/12/13 12:04:40;;;;;;;14.90;10.60;;;7.60;74.60;;;;;;5028094;28;20029;-84
2020/12/13 12:07:06;;;;;;;15.13;10.80;;;7.60;74.80;;;;;;5018224;28;20033;-84
2020/12/13 12:09:31;;;;;;;19.73;12.63;;;7.60;74.60;;;;;;5023506;28;20021;-84
2020/12/13 12:11:57;;;;;;;16.73;10.87;;;7.60;74.80;;;;;;5019353;28;20049;-84
2020/12/13 12:14:23;;;;;;;15.27;9.93;;;7.60;74.60;;;;;;5028235;28;20479;-84
2020/12/13 12:16:48;;;;;;;16.47;10.07;;;7.70;74.60;;;;;;5019259;28;20045;-84
2020/12/13 12:19:14;;;;;;;17.80;11.47;;;7.70;74.50;;;;;;5019506;28;20022;-84
2020/12/13 12:21:47;;;;;;;15.33;10.63;;;7.70;74.30;;;;;;5027704;28;20366;-84
2020/12/13 12:24:16;;;;;;;15.65;11.10;;;7.70;74.10;;;;;;5014335;28;20030;-84
2020/12/13 12:26:42;;;;;;;12.83;9.83;;;7.70;74.30;;;;;;5029747;28;20041;-83
2020/12/13 12:29:08;;;;;;;15.13;10.97;;;7.80;74.40;;;;;;5018698;28;20022;-84
2020/12/13 12:31:34;;;;;;;16.07;11.30;;;7.90;74.40;;;;;;5033225;28;20124;-84
2020/12/13 12:33:59;;;;;;;14.03;11.33;;;7.90;74.30;;;;;;5030166;28;20392;-84
2020/12/13 12:36:27;;;;;;;14.27;11.40;;;7.90;74.30;;;;;;5034804;28;20116;-84
2020/12/13 12:38:53;;;;;;;13.47;10.73;;;7.90;74.50;;;;;;5031116;28;20045;-84
2020/12/13 12:41:20;;;;;;;13.87;11.40;;;7.90;74.40;;;;;;5033640;28;20407;-84
2020/12/13 12:43:48;;;;;;;17.27;11.77;;;8.00;74.40;;;;;;5032711;28;20523;-84
2020/12/13 12:46:14;;;;;;;14.93;9.87;;;7.90;74.10;;;;;;5027984;28;20033;-84
2020/12/13 12:48:40;;;;;;;13.83;9.83;;;7.90;74.10;;;;;;5030768;28;20388;-84
2020/12/13 12:51:09;;;;;;;17.73;12.47;;;7.90;74.20;;;;;;5018366;28;20022;-84